Time;durP1;ratioP1;P1;durP2;ratioP2;P2;SDS_P1;SDS_P2;PMS_P1;PMS_P2;Temp;Humidity;BMP_temperature;BMP_pressure;BME280_temperature;BME280_humidity;BME280_pressure;Samples;Min_cycle;Max_cycle;Signal;HPM_P1;HPM_P2
2023/04/05 00:00:57;;;;;;;;;31.00;25.00;;;;;11.49;73.92;102146.38;5045353;28;45388;-73
2023/04/05 00:03:22;;;;;;;;;20.50;20.00;;;;;11.47;74.87;102138.31;5041493;28;45351;-72
2023/04/05 00:05:48;;;;;;;;;29.00;20.75;;;;;11.33;76.83;102114.03;5024393;28;45394;-72
2023/04/05 00:08:22;;;;;;;;;21.00;18.50;;;;;11.43;75.84;102131.41;5041939;28;45332;-72
2023/04/05 00:10:48;;;;;;;;;24.50;21.00;;;;;11.35;77.36;102125.69;5025563;28;48287;-72
2023/04/05 00:13:14;;;;;;;;;28.75;24.50;;;;;11.28;78.43;102144.34;5017386;28;45882;-72
2023/04/05 00:15:39;;;;;;;;;23.50;23.00;;;;;11.25;78.72;102141.00;5041243;28;45434;-72
2023/04/05 00:18:05;;;;;;;;;23.00;19.75;;;;;11.29;77.50;102134.34;5049545;28;45312;-72
2023/04/05 00:20:30;;;;;;;;;24.50;20.75;;;;;11.39;77.03;102129.91;5024182;28;48489;-72
2023/04/05 00:22:56;;;;;;;;;22.25;18.75;;;;;11.34;80.03;102129.38;5028033;28;45944;-72
2023/04/05 00:25:21;;;;;;;;;24.50;19.25;;;;;11.29;79.16;102123.44;5031208;28;45861;-73
2023/04/05 00:27:47;;;;;;;;;20.25;16.00;;;;;11.22;79.24;102127.63;5049932;28;45347;-72
2023/04/05 00:30:19;;;;;;;;;27.00;25.75;;;;;11.24;79.29;102122.94;5052025;28;46411;-72
2023/04/05 00:32:46;;;;;;;;;25.25;20.00;;;;;11.19;78.12;102122.41;5049175;28;45442;-72
2023/04/05 00:35:12;;;;;;;;;24.25;21.75;;;;;11.22;78.79;102135.78;5047004;28;45500;-73
2023/04/05 00:37:37;;;;;;;;;29.75;21.00;;;;;11.23;79.77;102129.38;5031844;28;45444;-73
2023/04/05 00:40:03;;;;;;;;;18.75;18.50;;;;;11.22;77.87;102128.50;5046880;28;46459;-72
2023/04/05 00:42:28;;;;;;;;;22.50;19.50;;;;;11.17;78.13;102121.69;5044288;28;45700;-72
2023/04/05 00:44:54;;;;;;;;;20.50;19.00;;;;;11.21;79.86;102128.63;5045520;28;45389;-72
2023/04/05 00:47:20;;;;;;;;;32.75;22.75;;;;;11.17;78.30;102118.97;5026345;28;45501;-73
2023/04/05 00:49:45;;;;;;;;;28.00;24.75;;;;;11.12;79.66;102116.59;5029119;28;47487;-72
2023/04/05 00:52:11;;;;;;;;;24.75;18.25;;;;;11.09;78.57;102122.28;5041768;28;45332;-73
2023/04/05 00:54:38;;;;;;;;;23.50;23.25;;;;;11.07;80.40;102120.66;5016048;28;45198;-72
2023/04/05 00:57:05;;;;;;;;;19.75;18.00;;;;;11.07;80.34;102117.94;5020334;28;45467;-72
2023/04/05 00:59:31;;;;;;;;;25.00;18.50;;;;;10.99;80.03;102109.50;5045711;28;45528;-72
2023/04/05 01:02:05;;;;;;;;;18.00;14.00;;;;;10.94;81.07;102107.16;5021374;28;45416;-72
2023/04/05 01:04:35;;;;;;;;;22.00;18.75;;;;;10.99;80.02;102120.38;5023685;28;45510;-72
2023/04/05 01:07:11;;;;;;;;;21.00;19.00;;;;;10.90;80.33;102120.09;5026953;28;45341;-72
2023/04/05 01:09:56;;;;;;;;;20.75;19.00;;;;;10.82;82.94;102113.50;5024177;28;47686;-72
2023/04/05 01:12:26;;;;;;;;;26.00;22.75;;;;;10.82;84.01;102111.66;5046880;28;45265;-72
2023/04/05 01:14:53;;;;;;;;;31.50;25.25;;;;;10.80;83.96;102105.50;5041356;28;45353;-73
2023/04/05 01:17:21;;;;;;;;;16.25;12.75;;;;;10.72;84.71;102110.63;5048427;28;45202;-72
2023/04/05 01:19:52;;;;;;;;;23.25;22.25;;;;;10.69;84.59;102099.09;5022599;28;46542;-72
2023/04/05 01:22:57;;;;;;;;;24.00;20.75;;;;;10.72;83.83;102104.31;5051286;28;45473;-72
2023/04/05 01:25:53;;;;;;;;;29.00;22.75;;;;;10.64;84.91;102079.56;5022228;28;45466;-72
2023/04/05 01:28:51;;;;;;;;;29.00;20.00;;;;;10.65;84.66;102090.34;5017540;28;45424;-72
2023/04/05 01:31:45;;;;;;;;;23.00;18.25;;;;;10.63;86.72;102088.72;5045272;28;45417;-72
2023/04/05 01:34:25;;;;;;;;;23.50;18.25;;;;;10.62;86.35;102100.56;5052839;28;45509;-72
2023/04/05 01:36:56;;;;;;;;;24.50;18.50;;;;;10.57;84.99;102086.47;5048037;28;45466;-72
2023/04/05 01:39:23;;;;;;;;;21.00;21.00;;;;;10.54;87.36;102091.13;5051950;28;45337;-73
2023/04/05 01:41:50;;;;;;;;;20.50;18.25;;;;;10.54;87.27;102088.41;5035885;28;45534;-72
2023/04/05 01:44:15;;;;;;;;;23.25;21.25;;;;;10.50;88.93;102092.38;5049598;28;45438;-72
2023/04/05 01:46:41;;;;;;;;;27.25;22.75;;;;;10.48;87.06;102079.88;5037010;28;45423;-73
2023/04/05 01:49:06;;;;;;;;;21.25;18.75;;;;;10.39;86.62;102072.41;5048788;28;45679;-72
2023/04/05 01:51:32;;;;;;;;;29.75;24.75;;;;;10.41;86.27;102081.31;5035744;28;47438;-72
2023/04/05 01:53:57;;;;;;;;;20.25;18.00;;;;;10.39;87.39;102078.69;5030299;28;45274;-72
2023/04/05 01:56:22;;;;;;;;;26.25;21.25;;;;;10.33;86.88;102068.28;5044709;28;45402;-73
2023/04/05 01:58:48;;;;;;;;;24.75;21.25;;;;;10.35;87.71;102070.91;5048945;28;45697;-72
2023/04/05 02:01:13;;;;;;;;;17.50;16.50;;;;;10.43;87.69;102084.78;5044467;28;46374;-72
2023/04/05 02:03:39;;;;;;;;;29.25;24.50;;;;;10.33;88.11;102065.59;5032518;28;45965;-72
2023/04/05 02:06:04;;;;;;;;;29.75;25.25;;;;;10.33;88.74;102054.72;5045355;28;45851;-72
2023/04/05 02:08:30;;;;;;;;;27.75;22.75;;;;;10.36;90.73;102067.22;5030060;28;45432;-72
2023/04/05 02:10:55;;;;;;;;;29.25;24.00;;;;;10.35;89.81;102068.19;5027046;28;46497;-72
2023/04/05 02:13:25;;;;;;;;;28.75;23.25;;;;;10.24;89.90;102049.09;5052067;28;45353;-72
2023/04/05 02:15:50;;;;;;;;;26.25;23.00;;;;;10.27;90.87;102065.19;5024008;28;45491;-72
2023/04/05 02:18:21;;;;;;;;;23.75;21.50;;;;;10.23;92.17;102055.53;5056855;28;45777;-72
2023/04/05 02:20:50;;;;;;;;;31.00;24.50;;;;;10.15;93.03;102043.31;5023705;28;47147;-72
2023/04/05 02:23:18;;;;;;;;;27.25;26.75;;;;;10.13;93.74;102052.59;5057492;28;45384;-72
2023/04/05 02:25:43;;;;;;;;;26.00;24.00;;;;;10.14;93.27;102060.63;5043319;28;45369;-72
2023/04/05 02:28:09;;;;;;;;;28.75;26.25;;;;;10.13;94.28;102058.91;5040511;28;45383;-71
2023/04/05 02:30:34;;;;;;;;;30.25;28.50;;;;;10.10;94.93;102045.53;5046374;28;45338;-72
2023/04/05 02:33:00;;;;;;;;;35.25;32.00;;;;;10.07;95.92;102053.91;5049268;28;45212;-72
2023/04/05 02:35:26;;;;;;;;;34.50;27.25;;;;;10.00;97.39;102047.22;5020560;28;45438;-72
2023/04/05 02:37:51;;;;;;;;;35.25;28.00;;;;;10.01;97.37;102040.78;5045159;28;45439;-74
2023/04/05 02:40:16;;;;;;;;;34.50;28.50;;;;;10.12;96.97;102043.56;5023511;28;45546;-71
2023/04/05 02:42:42;;;;;;;;;39.25;31.75;;;;;10.10;96.68;102045.53;5024823;28;45454;-73
2023/04/05 02:45:07;;;;;;;;;36.25;30.00;;;;;10.06;97.67;102032.31;5017660;28;45395;-73
2023/04/05 02:47:33;;;;;;;;;28.50;26.00;;;;;9.96;99.05;102040.25;5021501;28;45168;-70
2023/04/05 02:49:58;;;;;;;;;33.50;30.75;;;;;9.90;99.89;102027.13;5044530;28;45410;-71
2023/04/05 02:52:24;;;;;;;;;45.25;33.50;;;;;9.93;100.00;102034.19;5044498;28;45562;-71
2023/04/05 02:54:49;;;;;;;;;33.00;29.00;;;;;10.00;100.00;102044.50;5045498;28;45470;-71
2023/04/05 02:57:15;;;;;;;;;33.25;30.00;;;;;9.94;100.00;102039.50;5044718;28;45256;-71
2023/04/05 02:59:41;;;;;;;;;33.75;32.00;;;;;9.92;100.00;102040.59;5041770;28;47197;-71
2023/04/05 03:02:08;;;;;;;;;38.25;32.25;;;;;9.92;100.00;102044.19;5025796;28;45518;-71
2023/04/05 03:04:33;;;;;;;;;40.50;34.75;;;;;9.80;100.00;102036.06;5024698;28;45458;-72
2023/04/05 03:07:01;;;;;;;;;41.25;34.75;;;;;9.82;100.00;102039.53;5049304;28;45445;-71
2023/04/05 03:09:32;;;;;;;;;43.00;33.25;;;;;9.86;100.00;102028.34;5024459;28;47122;-70
2023/04/05 03:11:58;;;;;;;;;42.00;36.75;;;;;9.74;100.00;102021.09;5041548;28;45388;-73
2023/04/05 03:14:23;;;;;;;;;43.00;37.00;;;;;9.77;100.00;102032.59;5045684;28;45698;-71
2023/04/05 03:16:49;;;;;;;;;42.75;37.50;;;;;9.80;100.00;102025.19;5033997;28;45453;-71
2023/04/05 03:19:15;;;;;;;;;40.75;36.25;;;;;9.77;100.00;102029.91;5034910;28;48452;-72
2023/04/05 03:21:41;;;;;;;;;40.50;37.25;;;;;9.80;100.00;102039.63;5027651;28;45727;-72
2023/04/05 03:24:06;;;;;;;;;42.00;36.25;;;;;9.82;100.00;102039.53;5045215;28;45568;-71
2023/04/05 03:26:32;;;;;;;;;32.00;28.75;;;;;9.74;100.00;102043.69;5039732;28;45363;-70
2023/04/05 03:28:57;;;;;;;;;47.25;37.75;;;;;9.66;100.00;102035.22;5039469;28;47738;-71
2023/04/05 03:31:22;;;;;;;;;42.75;34.50;;;;;9.65;100.00;102038.03;5045590;28;47865;-71
2023/04/05 03:33:48;;;;;;;;;36.00;31.50;;;;;9.62;100.00;102038.28;5037422;28;53677;-71
2023/04/05 03:36:15;;;;;;;;;41.75;36.00;;;;;9.57;100.00;102037.75;5018471;28;45542;-71
2023/04/05 03:38:44;;;;;;;;;36.75;33.00;;;;;9.40;100.00;102022.69;5042708;28;46209;-72
2023/04/05 03:41:09;;;;;;;;;39.75;33.50;;;;;9.46;100.00;102040.34;5017117;28;45408;-70
2023/04/05 03:43:34;;;;;;;;;39.50;36.00;;;;;9.44;100.00;102039.59;5045728;28;45320;-72
2023/04/05 03:46:00;;;;;;;;;42.75;35.25;;;;;9.32;100.00;102019.63;5027489;28;45240;-72
2023/04/05 03:48:25;;;;;;;;;44.25;37.25;;;;;9.29;100.00;102033.41;5045176;28;45587;-72
2023/04/05 03:50:51;;;;;;;;;46.50;37.50;;;;;9.18;100.00;102017.03;5041036;28;45470;-71
2023/04/05 03:53:16;;;;;;;;;46.50;38.50;;;;;9.28;100.00;102029.81;5045622;28;45221;-71
2023/04/05 03:55:49;;;;;;;;;43.00;34.00;;;;;9.27;100.00;102028.13;5030137;28;45431;-72
2023/04/05 03:58:15;;;;;;;;;41.00;37.00;;;;;9.38;100.00;102043.59;5045628;28;45376;-72
2023/04/05 04:00:41;;;;;;;;;41.00;35.00;;;;;9.38;100.00;102036.34;5045653;28;45460;-70
2023/04/05 04:03:06;;;;;;;;;43.75;37.75;;;;;9.29;100.00;102031.56;5045280;28;45815;-72
2023/04/05 04:05:37;;;;;;;;;37.25;34.25;;;;;9.24;100.00;102039.16;5046189;28;45213;-72
2023/04/05 04:08:03;;;;;;;;;40.50;37.25;;;;;9.18;100.00;102050.44;5044861;28;46626;-72
2023/04/05 04:10:28;;;;;;;;;33.75;32.25;;;;;9.15;100.00;102039.81;5025851;28;45503;-72
2023/04/05 04:12:54;;;;;;;;;38.75;32.75;;;;;9.14;100.00;102037.19;5050392;28;45470;-72
2023/04/05 04:15:19;;;;;;;;;39.25;31.00;;;;;9.12;100.00;102023.78;5049275;28;45413;-71
2023/04/05 04:17:45;;;;;;;;;34.25;32.75;;;;;9.26;100.00;102026.38;5056925;28;45524;-72
2023/04/05 04:20:11;;;;;;;;;39.25;31.50;;;;;9.30;100.00;102025.16;5052747;28;45306;-71
2023/04/05 04:22:39;;;;;;;;;35.00;26.50;;;;;9.31;100.00;102023.31;5052828;28;45446;-71
2023/04/05 04:25:09;;;;;;;;;32.25;29.25;;;;;9.22;100.00;102022.13;5055326;28;45210;-71
2023/04/05 04:27:38;;;;;;;;;44.00;38.25;;;;;9.20;100.00;102034.94;5047368;28;45469;-72
2023/04/05 04:30:09;;;;;;;;;56.25;44.75;;;;;9.18;100.00;102028.75;5033552;28;45474;-72
2023/04/05 04:35:26;;;;;;;;;45.50;37.25;;;;;9.26;100.00;102039.94;5047951;28;45477;-69
2023/04/05 04:37:59;;;;;;;;;41.25;36.50;;;;;9.14;100.00;102043.50;5051849;28;45730;-71
2023/04/05 04:40:28;;;;;;;;;39.00;38.00;;;;;9.10;100.00;102052.81;5023661;28;45934;-70
2023/04/05 04:42:57;;;;;;;;;42.75;37.00;;;;;9.06;100.00;102024.19;5060118;28;45458;-71
2023/04/05 04:45:23;;;;;;;;;43.25;33.75;;;;;9.05;100.00;102032.44;5050419;28;45724;-71
2023/04/05 04:47:52;;;;;;;;;36.75;32.25;;;;;9.16;100.00;102027.13;5037992;28;46166;-70
2023/04/05 04:50:19;;;;;;;;;37.75;34.25;;;;;8.97;100.00;102022.13;5051398;28;45456;-72
2023/04/05 04:52:45;;;;;;;;;35.50;32.50;;;;;8.91;100.00;102025.28;5057758;28;45273;-70
2023/04/05 04:55:14;;;;;;;;;47.25;37.50;;;;;8.88;100.00;102030.91;5048896;28;45664;-70
2023/04/05 04:57:41;;;;;;;;;37.75;35.50;;;;;8.84;100.00;102032.94;5037949;28;47194;-71
2023/04/05 05:00:14;;;;;;;;;47.25;37.00;;;;;8.80;100.00;102025.13;5053444;28;45423;-71
2023/04/05 05:02:41;;;;;;;;;38.75;35.00;;;;;8.87;100.00;102035.44;5018318;28;45440;-71
2023/04/05 05:05:07;;;;;;;;;38.25;33.50;;;;;8.94;100.00;102033.19;5046201;28;45284;-70
2023/04/05 05:07:34;;;;;;;;;44.00;34.75;;;;;8.87;100.00;102018.31;5031884;28;47627;-71
2023/04/05 05:10:00;;;;;;;;;53.25;38.25;;;;;8.79;100.00;102026.09;5020499;28;45312;-71
2023/04/05 05:12:25;;;;;;;;;38.00;34.75;;;;;8.92;100.00;102021.56;5020874;28;45190;-71
2023/04/05 05:14:51;;;;;;;;;50.75;41.50;;;;;8.92;100.00;102025.16;5031932;28;45273;-73
2023/04/05 05:17:16;;;;;;;;;52.75;40.50;;;;;8.73;100.00;102004.84;5056254;28;45414;-71
2023/04/05 05:19:42;;;;;;;;;37.50;35.50;;;;;8.77;100.00;102017.22;5051846;28;45489;-71
2023/04/05 05:22:07;;;;;;;;;41.00;38.00;;;;;8.77;100.00;102022.63;5023132;28;45332;-71
2023/04/05 05:24:32;;;;;;;;;41.00;36.50;;;;;8.83;100.00;102011.38;5036963;28;45186;-72
2023/04/05 05:26:58;;;;;;;;;46.00;38.00;;;;;8.84;100.00;102026.69;5023763;28;45440;-71
2023/04/05 05:29:23;;;;;;;;;39.00;33.50;;;;;8.81;100.00;102013.31;5052821;28;51663;-72
2023/04/05 05:31:49;;;;;;;;;40.75;32.75;;;;;8.94;100.00;102027.75;5023836;28;45277;-71
2023/04/05 05:34:15;;;;;;;;;43.00;38.75;;;;;8.77;100.00;102000.94;5054090;28;45432;-71
2023/04/05 05:36:40;;;;;;;;;37.50;28.75;;;;;8.80;100.00;102020.59;5041888;28;45455;-71
2023/04/05 05:39:06;;;;;;;;;43.25;36.50;;;;;8.77;100.00;102006.38;5046045;28;45347;-73
2023/04/05 05:41:32;;;;;;;;;53.00;37.75;;;;;8.83;100.00;102008.69;5041394;28;45359;-72
2023/04/05 05:43:57;;;;;;;;;37.25;34.25;;;;;8.87;100.00;102019.19;5046678;28;45519;-71
2023/04/05 05:46:23;;;;;;;;;38.50;34.25;;;;;8.85;100.00;102012.13;5046733;28;45300;-71
2023/04/05 05:48:48;;;;;;;;;43.50;37.25;;;;;8.99;100.00;102017.44;5046379;28;45557;-73
2023/04/05 05:51:13;;;;;;;;;40.00;37.00;;;;;9.02;100.00;102024.50;5024652;28;45363;-71
2023/04/05 05:53:39;;;;;;;;;35.75;27.00;;;;;8.97;100.00;102016.72;5040395;28;45244;-71
2023/04/05 05:56:05;;;;;;;;;47.25;37.25;;;;;9.08;100.00;102037.63;5041240;28;46246;-72
2023/04/05 05:58:31;;;;;;;;;40.25;36.50;;;;;9.12;100.00;102018.34;5030845;28;45434;-73
2023/04/05 06:00:57;;;;;;;;;44.75;38.25;;;;;9.09;100.00;102013.13;5039318;28;45216;-72
2023/04/05 06:03:24;;;;;;;;;45.50;35.50;;;;;9.29;100.00;102026.13;5020255;28;45723;-71
2023/04/05 06:05:53;;;;;;;;;37.50;33.00;;;;;9.32;100.00;102023.22;5050098;28;46608;-71
2023/04/05 06:08:19;;;;;;;;;45.50;36.50;;;;;9.42;100.00;102015.31;5050235;28;45450;-72
2023/04/05 06:10:44;;;;;;;;;48.00;42.50;;;;;9.90;100.00;102023.56;5044096;28;45426;-70
2023/04/05 06:13:10;;;;;;;;;46.50;36.75;;;;;11.27;100.00;102030.19;5053822;28;45273;-72
2023/04/05 06:15:35;;;;;;;;;55.00;40.00;;;;;11.17;100.00;102013.75;5045028;28;45328;-70
2023/04/05 06:18:00;;;;;;;;;50.00;41.25;;;;;10.92;100.00;102017.53;5053690;28;45510;-71
2023/04/05 06:20:26;;;;;;;;;46.00;39.00;;;;;10.84;100.00;102019.09;5035163;28;45419;-70
2023/04/05 06:22:51;;;;;;;;;47.25;40.00;;;;;10.69;100.00;102032.03;5047580;28;45229;-70
2023/04/05 06:25:16;;;;;;;;;43.25;37.00;;;;;10.47;100.00;102023.78;5044581;28;46771;-71
2023/04/05 06:27:42;;;;;;;;;46.00;36.75;;;;;10.63;100.00;102032.50;5043366;28;45554;-76
2023/04/05 06:30:07;;;;;;;;;39.25;35.75;;;;;10.58;100.00;102042.88;5046276;28;45414;-75
2023/04/05 06:32:33;;;;;;;;;44.25;38.25;;;;;10.67;100.00;102044.00;5043170;28;45255;-75
2023/04/05 06:35:02;;;;;;;;;48.50;37.75;;;;;10.81;100.00;102039.22;5048387;28;45821;-75
2023/04/05 06:37:28;;;;;;;;;58.00;46.00;;;;;11.76;100.00;102029.03;5028215;28;45439;-74
2023/04/05 06:39:53;;;;;;;;;52.25;42.25;;;;;11.85;94.00;102009.19;5047343;28;45280;-75
2023/04/05 06:42:19;;;;;;;;;47.00;36.50;;;;;11.68;94.63;102033.19;5050535;28;45322;-75
2023/04/05 06:44:44;;;;;;;;;54.75;43.00;;;;;11.41;93.99;102008.19;5031223;28;47296;-75
2023/04/05 06:47:10;;;;;;;;;55.50;40.75;;;;;11.53;94.70;102034.44;5050045;28;45243;-74
2023/04/05 06:49:35;;;;;;;;;50.50;42.00;;;;;11.32;96.39;102020.66;5024769;28;45491;-74
2023/04/05 06:52:01;;;;;;;;;47.50;37.75;;;;;11.49;97.12;102019.31;5059232;28;45413;-73
2023/04/05 06:54:27;;;;;;;;;41.75;38.00;;;;;11.76;94.84;102039.91;5047413;28;46444;-73
2023/04/05 06:56:52;;;;;;;;;44.00;39.00;;;;;11.89;93.54;102036.06;5042302;28;45254;-75
2023/04/05 06:59:18;;;;;;;;;43.75;39.00;;;;;12.07;91.80;102039.09;5050068;28;45343;-74
2023/04/05 07:01:43;;;;;;;;;49.00;39.00;;;;;12.13;90.13;102037.75;5044352;28;45332;-75
2023/04/05 07:04:09;;;;;;;;;48.75;39.75;;;;;12.17;87.82;102039.22;5053327;28;45403;-74
2023/04/05 07:06:37;;;;;;;;;43.75;39.00;;;;;12.17;86.72;102044.66;5028193;28;45428;-75
2023/04/05 07:09:04;;;;;;;;;50.75;39.25;;;;;12.19;86.19;102049.00;5037307;28;45239;-74
2023/04/05 07:11:31;;;;;;;;;38.25;30.25;;;;;12.06;85.23;102051.00;5030764;28;45464;-74
2023/04/05 07:13:58;;;;;;;;;48.50;37.75;;;;;12.22;85.78;102037.84;5032041;28;46500;-74
2023/04/05 07:16:24;;;;;;;;;54.00;40.00;;;;;12.30;81.73;102040.78;5050465;28;45271;-75
2023/04/05 07:18:50;;;;;;;;;57.50;44.75;;;;;12.52;82.08;102063.53;5057099;28;45318;-75
2023/04/05 07:21:16;;;;;;;;;41.50;35.25;;;;;12.59;79.31;102053.84;5026495;28;45293;-75
2023/04/05 07:23:41;;;;;;;;;39.75;37.00;;;;;12.72;80.07;102043.59;5031489;28;46593;-75
2023/04/05 07:26:07;;;;;;;;;36.75;34.50;;;;;12.62;74.90;102053.59;5041180;28;45368;-75
2023/04/05 07:28:34;;;;;;;;;41.00;35.75;;;;;12.59;76.19;102056.56;5031321;28;45453;-76
2023/04/05 07:31:00;;;;;;;;;35.50;34.00;;;;;12.53;77.48;102046.19;5040409;28;45363;-76
2023/04/05 07:33:26;;;;;;;;;59.50;47.00;;;;;12.84;77.58;102043.44;5031597;28;47526;-74
2023/04/05 07:35:53;;;;;;;;;47.50;39.25;;;;;13.05;74.66;102050.78;5041228;28;45225;-74
2023/04/05 07:38:20;;;;;;;;;42.25;36.00;;;;;12.85;71.69;102052.50;5057788;28;45424;-75
2023/04/05 07:40:50;;;;;;;;;44.25;37.50;;;;;12.76;71.38;102059.59;5037527;28;45609;-74
2023/04/05 07:43:16;;;;;;;;;35.00;32.50;;;;;13.01;71.68;102044.69;5026880;28;47193;-75
2023/04/05 07:45:42;;;;;;;;;39.50;35.00;;;;;12.69;71.34;102052.94;5050306;28;45318;-74
2023/04/05 07:48:07;;;;;;;;;49.00;40.75;;;;;12.36;71.38;102044.84;5057080;28;45252;-74
2023/04/05 07:50:33;;;;;;;;;38.50;34.75;;;;;12.64;69.61;102048.88;5050137;28;45366;-75
2023/04/05 07:52:59;;;;;;;;;32.00;29.75;;;;;12.65;69.32;102031.50;5040235;28;47585;-74
2023/04/05 07:55:26;;;;;;;;;34.75;30.00;;;;;12.66;66.09;102047.72;5031043;28;45597;-74
2023/04/05 07:57:52;;;;;;;;;39.50;34.50;;;;;12.52;68.25;102033.53;5055038;28;45445;-74
2023/04/05 08:00:18;;;;;;;;;43.25;34.75;;;;;12.45;67.84;102019.56;5027467;28;45462;-74
2023/04/05 08:02:44;;;;;;;;;42.00;36.00;;;;;12.88;68.04;102042.19;5050400;28;47473;-75
2023/04/05 08:05:10;;;;;;;;;37.25;34.00;;;;;13.19;66.07;102029.50;5050640;28;45390;-75
2023/04/05 08:07:35;;;;;;;;;38.75;35.75;;;;;13.32;65.46;102031.16;5056285;28;45562;-75
2023/04/05 08:10:01;;;;;;;;;30.50;28.75;;;;;13.50;60.47;102026.81;5038548;28;45366;-75
2023/04/05 08:12:26;;;;;;;;;30.00;22.75;;;;;13.69;60.91;102021.41;5025727;28;45626;-74
2023/04/05 08:14:52;;;;;;;;;38.00;34.75;;;;;13.60;59.48;102027.69;5033123;28;45522;-74
2023/04/05 08:17:19;;;;;;;;;44.75;35.00;;;;;13.71;59.29;102029.47;5020772;28;45352;-74
2023/04/05 08:19:44;;;;;;;;;39.00;32.00;;;;;13.75;57.92;102017.25;5033417;28;45246;-74
2023/04/05 08:22:10;;;;;;;;;33.50;31.25;;;;;14.26;55.30;102036.25;5020297;28;47358;-75
2023/04/05 08:24:35;;;;;;;;;39.75;33.50;;;;;14.08;55.37;102027.00;5051571;28;45480;-75
2023/04/05 08:27:01;;;;;;;;;32.00;26.25;;;;;14.91;55.27;102032.00;5025261;28;45478;-75
2023/04/05 08:29:26;;;;;;;;;25.75;24.75;;;;;15.16;54.36;102023.19;5054329;28;45256;-75
2023/04/05 08:31:51;;;;;;;;;28.50;27.00;;;;;15.82;55.08;102018.53;5042863;28;46118;-75
2023/04/05 08:34:17;;;;;;;;;37.75;31.50;;;;;15.53;50.14;102036.97;5036332;28;45356;-75
2023/04/05 08:36:42;;;;;;;;;34.25;27.75;;;;;15.62;49.66;102037.94;5023465;28;45363;-75
2023/04/05 08:39:07;;;;;;;;;35.50;30.50;;;;;15.33;49.95;102032.53;5031776;28;45323;-75
2023/04/05 08:41:35;;;;;;;;;34.75;31.00;;;;;15.32;50.02;102030.78;5020542;28;49348;-75
2023/04/05 08:44:02;;;;;;;;;38.25;33.00;;;;;15.55;49.36;102040.41;5037205;28;45492;-74
2023/04/05 08:46:33;;;;;;;;;36.25;30.50;;;;;16.13;48.28;102035.53;5047698;28;45401;-75
2023/04/05 08:49:00;;;;;;;;;52.75;40.50;;;;;16.86;50.37;102033.56;5016569;28;45569;-76
2023/04/05 08:51:26;;;;;;;;;48.75;36.25;;;;;16.55;46.41;102024.84;5046975;28;45719;-76
2023/04/05 08:53:54;;;;;;;;;29.00;25.25;;;;;16.77;46.71;102015.31;5033387;28;45745;-75
2023/04/05 08:56:33;;;;;;;;;33.50;29.75;;;;;17.13;47.46;102025.22;5049677;28;45174;-76
2023/04/05 08:59:02;;;;;;;;;37.75;32.00;;;;;17.51;44.42;102025.81;5052052;28;46049;-77
2023/04/05 09:01:29;;;;;;;;;33.75;29.75;;;;;17.99;44.94;102030.72;5042960;28;45775;-74
2023/04/05 09:03:56;;;;;;;;;30.75;25.50;;;;;17.48;43.58;102031.63;5058483;28;45370;-75
2023/04/05 09:06:22;;;;;;;;;32.25;30.75;;;;;17.54;42.78;102025.47;5024296;28;45387;-75
2023/04/05 09:08:48;;;;;;;;;32.00;25.25;;;;;18.05;44.01;102026.44;5031599;28;45324;-76
2023/04/05 09:11:15;;;;;;;;;28.50;28.50;;;;;18.61;46.39;102026.63;5049848;28;45837;-76
2023/04/05 09:13:41;;;;;;;;;30.50;27.50;;;;;18.94;42.93;102027.50;5043693;28;45950;-76
2023/04/05 09:16:06;;;;;;;;;31.75;30.25;;;;;19.08;40.92;102022.34;5036071;28;45172;-76
2023/04/05 09:18:32;;;;;;;;;29.50;27.75;;;;;19.19;41.24;102020.09;5026567;28;45193;-75
2023/04/05 09:21:06;;;;;;;;;31.75;27.75;;;;;19.32;39.08;102025.94;5038159;28;46463;-76
2023/04/05 09:23:36;;;;;;;;;33.50;28.75;;;;;19.57;39.77;102018.53;5026131;28;45461;-75
2023/04/05 09:26:25;;;;;;;;;27.25;24.00;;;;;19.95;41.37;102018.72;5040899;28;45468;-74
2023/04/05 09:28:51;;;;;;;;;29.25;28.00;;;;;19.29;38.08;102012.50;5053528;28;45709;-75
2023/04/05 09:31:34;;;;;;;;;25.50;21.25;;;;;19.06;38.45;102019.78;5038953;28;45391;-75
2023/04/05 09:34:04;;;;;;;;;28.00;26.75;;;;;19.81;38.55;102015.66;5051782;28;46157;-76
2023/04/05 09:36:32;;;;;;;;;27.00;24.75;;;;;20.11;37.78;102005.72;5024780;28;45335;-75
2023/04/05 09:39:08;;;;;;;;;32.50;28.50;;;;;19.71;36.81;102003.16;5051641;28;45455;-76
2023/04/05 09:41:34;;;;;;;;;28.00;26.00;;;;;19.82;36.52;101999.97;5041939;28;47361;-75
2023/04/05 09:44:01;;;;;;;;;28.25;27.25;;;;;19.49;36.93;102003.91;5031335;28;45362;-75
2023/04/05 09:46:38;;;;;;;;;31.00;25.75;;;;;19.41;36.18;102005.59;5023610;28;45428;-76
2023/04/05 09:49:05;;;;;;;;;29.75;28.00;;;;;19.05;36.47;102009.78;5039563;28;45500;-75
2023/04/05 09:51:35;;;;;;;;;24.50;21.00;;;;;19.65;35.89;102004.69;5032665;28;46375;-75
2023/04/05 09:54:07;;;;;;;;;28.00;25.50;;;;;20.47;37.42;102002.41;5035819;28;45823;-75
2023/04/05 09:56:34;;;;;;;;;29.50;28.25;;;;;20.43;35.54;101990.03;5025129;28;45386;-75
2023/04/05 09:59:04;;;;;;;;;26.00;23.50;;;;;19.55;35.08;102003.19;5036961;28;45198;-76
2023/04/05 10:01:31;;;;;;;;;33.25;29.50;;;;;19.68;35.58;101981.44;5026052;28;45630;-76
2023/04/05 10:03:57;;;;;;;;;35.75;27.25;;;;;19.20;37.10;101974.13;5037490;28;45399;-76
2023/04/05 10:06:23;;;;;;;;;32.25;26.75;;;;;20.02;36.10;101998.50;5028378;28;45439;-76
2023/04/05 10:08:49;;;;;;;;;28.00;24.75;;;;;20.61;35.63;101996.09;5039598;28;45603;-76
2023/04/05 10:11:17;;;;;;;;;34.00;30.00;;;;;20.09;34.58;101991.22;5014234;28;45264;-76
2023/04/05 10:13:44;;;;;;;;;29.00;25.75;;;;;20.20;35.78;101985.31;5047374;28;45327;-76
2023/04/05 10:16:16;;;;;;;;;25.25;24.25;;;;;20.49;34.11;101970.84;5020114;28;45705;-75
2023/04/05 10:18:50;;;;;;;;;32.00;29.50;;;;;19.79;34.21;101989.31;5044720;28;45574;-75
2023/04/05 10:21:25;;;;;;;;;36.25;33.00;;;;;20.13;34.44;101987.09;5032228;28;46370;-75
2023/04/05 10:24:11;;;;;;;;;29.00;25.75;;;;;19.80;34.58;101980.84;5046299;28;45254;-74
2023/04/05 10:27:00;;;;;;;;;26.25;24.75;;;;;20.54;34.85;101990.47;5030391;28;45392;-75
2023/04/05 10:29:34;;;;;;;;;30.75;28.50;;;;;20.96;33.90;101961.50;5020555;28;45489;-75
2023/04/05 10:32:10;;;;;;;;;27.25;26.25;;;;;21.26;33.75;101973.44;5026405;28;46799;-74
2023/04/05 10:34:47;;;;;;;;;29.00;24.25;;;;;20.89;32.60;101975.16;5028114;28;45426;-76
2023/04/05 10:37:28;;;;;;;;;20.50;19.00;;;;;20.54;32.49;101976.66;5029913;28;45394;-76
2023/04/05 10:39:57;;;;;;;;;30.50;27.75;;;;;20.44;32.96;101947.59;5025154;28;45390;-76
2023/04/05 10:42:26;;;;;;;;;23.50;20.50;;;;;21.08;32.50;101951.69;5015364;28;46456;-75
2023/04/05 10:44:58;;;;;;;;;23.50;23.50;;;;;21.64;32.84;101952.97;5027659;28;45568;-76
2023/04/05 10:47:27;;;;;;;;;35.50;30.25;;;;;20.73;31.54;101950.47;5035738;28;45470;-76
2023/04/05 10:49:55;;;;;;;;;33.00;31.50;;;;;20.22;31.27;101954.78;5025184;28;45276;-76
2023/04/05 10:52:21;;;;;;;;;26.25;23.75;;;;;20.06;31.19;101952.97;5020244;28;47691;-76
2023/04/05 10:54:48;;;;;;;;;26.50;24.25;;;;;20.75;31.35;101936.47;5042181;28;46038;-76
2023/04/05 10:57:18;;;;;;;;;26.00;25.75;;;;;21.36;31.89;101935.34;5047755;28;45496;-75
2023/04/05 10:59:45;;;;;;;;;31.50;29.25;;;;;21.07;30.63;101921.47;5050978;28;46237;-75
2023/04/05 11:02:11;;;;;;;;;24.25;23.25;;;;;21.53;31.64;101934.13;5031262;28;47362;-76
2023/04/05 11:04:38;;;;;;;;;26.50;23.00;;;;;22.19;30.53;101929.44;5036598;28;45428;-75
2023/04/05 11:07:17;;;;;;;;;29.50;27.00;;;;;22.17;29.73;101923.22;5028949;28;44847;-74
2023/04/05 11:10:03;;;;;;;;;32.50;30.50;;;;;21.58;29.14;101930.75;5033110;28;45707;-73
2023/04/05 11:12:47;;;;;;;;;25.00;24.25;;;;;22.12;30.29;101925.75;5037465;28;46662;-75
2023/04/05 11:15:27;;;;;;;;;21.50;20.50;;;;;21.97;30.25;101928.56;5053160;28;45429;-76